createdAt,value
2023-04-10T00:00:39.561Z,18.50
2023-04-10T00:03:21.104Z,18.75
2023-04-10T00:05:49.475Z,18.00
2023-04-10T00:08:17.660Z,17.75
2023-04-10T00:10:46.072Z,20.00
2023-04-10T00:13:15.215Z,18.50
2023-04-10T00:15:43.691Z,17.00
2023-04-10T00:18:12.423Z,16.67
2023-04-10T00:20:40.813Z,19.25
2023-04-10T00:23:09.047Z,15.25
2023-04-10T00:25:37.299Z,19.00
2023-04-10T00:28:05.579Z,12.00
2023-04-10T00:30:33.918Z,18.00
2023-04-10T00:33:02.147Z,16.75
2023-04-10T00:35:30.404Z,19.25
2023-04-10T00:37:58.840Z,20.00
2023-04-10T00:40:27.545Z,18.50
2023-04-10T00:42:55.839Z,21.75
2023-04-10T00:45:24.209Z,15.00
2023-04-10T00:47:52.544Z,19.00
2023-04-10T00:50:21.985Z,19.75
2023-04-10T00:52:52.070Z,18.67
2023-04-10T00:55:20.516Z,15.75
2023-04-10T00:57:48.947Z,15.00
2023-04-10T01:00:17.985Z,20.67
2023-04-10T01:02:46.440Z,19.25
2023-04-10T01:05:15.140Z,18.00
2023-04-10T01:08:10.869Z,17.25
2023-04-10T01:10:48.094Z,16.00
2023-04-10T01:13:50.106Z,21.00
2023-04-10T01:16:27.939Z,20.25
2023-04-10T01:19:20.530Z,21.25
2023-04-10T01:21:49.326Z,19.33
2023-04-10T01:24:25.023Z,19.75
2023-04-10T01:27:22.301Z,19.33
2023-04-10T01:29:53.078Z,18.75
2023-04-10T01:32:22.579Z,17.33
2023-04-10T01:34:53.445Z,18.50
2023-04-10T01:37:31.826Z,20.33
2023-04-10T01:40:03.452Z,21.67
2023-04-10T01:42:34.794Z,20.25
2023-04-10T01:45:04.854Z,16.00
2023-04-10T01:47:33.223Z,18.00
2023-04-10T01:50:02.338Z,18.00
2023-04-10T01:52:31.718Z,17.50
2023-04-10T01:55:01.929Z,17.25
2023-04-10T01:57:31.989Z,16.25
2023-04-10T02:00:00.287Z,15.25
2023-04-10T02:02:32.867Z,16.00
2023-04-10T02:05:01.530Z,17.33
2023-04-10T02:07:40.512Z,18.50
2023-04-10T02:10:11.691Z,18.00
2023-04-10T02:12:46.370Z,14.00
2023-04-10T02:15:17.363Z,16.25
2023-04-10T02:17:45.897Z,16.25
2023-04-10T02:20:14.659Z,14.00
2023-04-10T02:22:46.162Z,15.33
2023-04-10T02:25:14.717Z,15.67
2023-04-10T02:27:42.943Z,14.75
2023-04-10T02:30:11.771Z,15.50
2023-04-10T02:32:39.990Z,12.00
2023-04-10T02:35:08.620Z,9.50
2023-04-10T02:37:37.277Z,13.67
2023-04-10T02:40:06.445Z,13.00
2023-04-10T02:42:34.723Z,15.75
2023-04-10T02:45:02.940Z,15.75
2023-04-10T02:47:31.198Z,14.75
2023-04-10T02:49:59.466Z,16.50
2023-04-10T02:52:27.692Z,15.00
2023-04-10T02:54:55.866Z,16.50
2023-04-10T02:57:24.017Z,16.25
2023-04-10T02:59:52.389Z,14.25
2023-04-10T03:02:20.825Z,13.00
2023-04-10T03:04:49.181Z,16.50
2023-04-10T03:07:17.305Z,16.33
2023-04-10T03:09:45.508Z,14.25
2023-04-10T03:12:13.701Z,15.00
2023-04-10T03:14:41.916Z,16.50
2023-04-10T03:17:10.124Z,13.33
2023-04-10T03:19:38.310Z,19.00
2023-04-10T03:22:06.564Z,10.33
2023-04-10T03:24:34.770Z,15.50
2023-04-10T03:27:03.103Z,16.25
2023-04-10T03:29:31.258Z,15.75
2023-04-10T03:31:59.635Z,14.67
2023-04-10T03:34:28.027Z,12.75
2023-04-10T03:36:56.230Z,14.00
2023-04-10T03:39:24.909Z,16.25
2023-04-10T03:41:53.122Z,16.50
2023-04-10T03:44:22.733Z,17.00
2023-04-10T03:46:51.131Z,14.00
2023-04-10T03:49:19.289Z,17.25
2023-04-10T03:51:47.542Z,13.67
2023-04-10T03:54:15.876Z,15.50
2023-04-10T03:56:44.268Z,17.75
2023-04-10T03:59:12.453Z,15.00
2023-04-10T04:01:40.837Z,20.50
2023-04-10T04:04:09.260Z,15.67
2023-04-10T04:06:37.572Z,15.00
2023-04-10T04:09:06.250Z,18.25
2023-04-10T04:11:34.475Z,18.25
2023-04-10T04:14:02.691Z,16.50
2023-04-10T04:16:30.927Z,16.00
2023-04-10T04:18:59.149Z,19.75
2023-04-10T04:21:27.798Z,15.75
2023-04-10T04:23:56.044Z,21.33
2023-04-10T04:26:25.180Z,19.33
2023-04-10T04:28:53.399Z,15.00
2023-04-10T04:31:21.845Z,19.33
2023-04-10T04:33:50.059Z,23.00
2023-04-10T04:36:18.489Z,22.50
2023-04-10T04:38:46.701Z,17.75
2023-04-10T04:41:16.676Z,20.67
2023-04-10T04:43:47.581Z,27.33
2023-04-10T04:46:16.052Z,21.00
2023-04-10T04:48:44.235Z,20.33
2023-04-10T04:51:12.422Z,22.75
2023-04-10T04:53:40.568Z,24.00
2023-04-10T04:56:09.184Z,20.00
2023-04-10T04:58:37.456Z,22.00
2023-04-10T05:01:05.983Z,22.00
2023-04-10T05:03:34.307Z,21.67
2023-04-10T05:06:02.576Z,26.50
2023-04-10T05:08:30.966Z,23.00
2023-04-10T05:10:59.116Z,26.00
2023-04-10T05:13:27.441Z,23.50
2023-04-10T05:15:55.713Z,23.00
2023-04-10T05:18:24.158Z,19.67
2023-04-10T05:20:52.386Z,24.33
2023-04-10T05:23:20.672Z,23.67
2023-04-10T05:25:48.875Z,26.50
2023-04-10T05:28:17.078Z,23.00
2023-04-10T05:30:45.314Z,24.50
2023-04-10T05:33:13.493Z,25.00
2023-04-10T05:35:41.719Z,24.00
2023-04-10T05:38:10.148Z,22.33
2023-04-10T05:40:38.422Z,23.67
2023-04-10T05:43:06.659Z,18.25
2023-04-10T05:45:34.871Z,27.33
2023-04-10T05:48:03.288Z,26.50
2023-04-10T05:50:31.577Z,24.25
2023-04-10T05:52:59.794Z,16.75
2023-04-10T05:55:28.037Z,23.50
2023-04-10T05:57:56.509Z,23.50
2023-04-10T06:00:24.855Z,20.50
2023-04-10T06:02:53.095Z,20.50
2023-04-10T06:05:21.814Z,18.00
2023-04-10T06:07:50.022Z,20.50
2023-04-10T06:10:18.373Z,19.75
2023-04-10T06:12:46.869Z,22.67
2023-04-10T06:15:15.078Z,21.75
2023-04-10T06:17:44.272Z,23.50
2023-04-10T06:20:12.934Z,24.00
2023-04-10T06:22:41.253Z,22.33
2023-04-10T06:25:09.877Z,22.00
2023-04-10T06:27:38.212Z,23.75
2023-04-10T06:30:07.151Z,25.67
2023-04-10T06:32:35.621Z,21.25
2023-04-10T06:35:04.091Z,23.00
2023-04-10T06:37:33.058Z,19.50
2023-04-10T06:40:11.517Z,15.00
2023-04-10T06:42:40.222Z,21.00
2023-04-10T06:45:09.216Z,18.67
2023-04-10T06:47:37.493Z,20.25
2023-04-10T06:50:06.111Z,16.50
2023-04-10T06:52:34.325Z,20.00
2023-04-10T06:55:02.547Z,20.00
2023-04-10T06:57:31.187Z,19.75
2023-04-10T06:59:59.376Z,17.25
2023-04-10T07:02:27.855Z,18.00
2023-04-10T07:04:57.055Z,20.25
2023-04-10T07:07:25.557Z,24.50
2023-04-10T07:09:53.706Z,18.75
2023-04-10T07:12:23.030Z,16.00
2023-04-10T07:14:51.179Z,16.00
2023-04-10T07:17:19.470Z,19.75
2023-04-10T07:19:47.655Z,19.75
2023-04-10T07:22:16.075Z,14.50
2023-04-10T07:24:44.529Z,17.75
2023-04-10T07:27:13.075Z,18.50
2023-04-10T07:29:41.416Z,16.75
2023-04-10T07:32:09.822Z,17.75
2023-04-10T07:34:38.137Z,16.00
2023-04-10T07:37:07.340Z,15.00
2023-04-10T07:39:36.052Z,18.25
2023-04-10T07:42:04.325Z,18.25
2023-04-10T07:44:32.814Z,16.50
2023-04-10T07:47:00.956Z,18.25
2023-04-10T07:49:29.142Z,16.00
2023-04-10T07:51:57.383Z,14.67
2023-04-10T07:54:25.606Z,18.25
2023-04-10T07:56:53.823Z,16.25
2023-04-10T07:59:22.080Z,13.67
2023-04-10T08:01:50.725Z,17.75
2023-04-10T08:04:19.132Z,19.25
2023-04-10T08:06:47.485Z,15.00
2023-04-10T08:09:15.921Z,18.00
2023-04-10T08:11:44.042Z,14.75
2023-04-10T08:14:13.662Z,16.75
2023-04-10T08:16:46.356Z,14.33
2023-04-10T08:19:14.478Z,14.67
2023-04-10T08:21:42.722Z,16.75
2023-04-10T08:24:10.914Z,16.00
2023-04-10T08:26:39.118Z,15.75
2023-04-10T08:29:07.394Z,16.75
2023-04-10T08:31:36.019Z,15.00
2023-04-10T08:34:04.694Z,15.50
2023-04-10T08:36:32.969Z,15.50
2023-04-10T08:39:01.176Z,18.00
2023-04-10T08:41:29.455Z,15.00
2023-04-10T08:43:58.386Z,10.00
2023-04-10T08:46:27.530Z,18.00
2023-04-10T08:49:02.663Z,15.00
2023-04-10T08:51:47.966Z,16.25
2023-04-10T08:54:29.693Z,14.67
2023-04-10T08:56:58.803Z,14.50
2023-04-10T08:59:30.151Z,14.75
2023-04-10T09:01:59.051Z,15.50
2023-04-10T09:04:27.722Z,10.25
2023-04-10T09:06:56.052Z,13.75
2023-04-10T09:09:24.138Z,15.50
2023-04-10T09:11:52.333Z,15.33
2023-04-10T09:14:25.031Z,13.00
2023-04-10T09:16:54.832Z,14.33
2023-04-10T09:19:33.907Z,11.00
2023-04-10T09:22:02.075Z,14.33
2023-04-10T09:24:30.558Z,16.00
2023-04-10T09:26:58.817Z,14.00
2023-04-10T09:29:27.827Z,15.25
2023-04-10T09:31:55.985Z,17.25
2023-04-10T09:34:24.288Z,15.00
2023-04-10T09:37:01.439Z,14.25
2023-04-10T09:39:41.208Z,14.25
2023-04-10T09:42:10.098Z,16.00
2023-04-10T09:44:39.472Z,13.00
2023-04-10T09:47:17.827Z,17.50
2023-04-10T09:49:48.378Z,14.00
2023-04-10T09:52:42.630Z,17.00
2023-04-10T09:55:17.339Z,13.33
2023-04-10T09:57:45.804Z,16.25
2023-04-10T10:00:14.859Z,17.00
2023-04-10T10:02:43.171Z,16.75
2023-04-10T10:05:11.913Z,14.50
2023-04-10T10:07:40.194Z,13.25
2023-04-10T10:10:11.710Z,16.00
2023-04-10T10:12:50.677Z,18.00
2023-04-10T10:15:30.895Z,16.67
2023-04-10T10:18:08.687Z,12.00
2023-04-10T10:20:38.341Z,17.00
2023-04-10T10:23:08.351Z,15.33
2023-04-10T10:25:37.111Z,15.00
2023-04-10T10:28:05.767Z,15.33
2023-04-10T10:30:35.298Z,15.25
2023-04-10T10:33:07.350Z,16.00
2023-04-10T10:35:37.343Z,15.00
2023-04-10T10:38:05.752Z,19.00
2023-04-10T10:40:39.230Z,17.00
2023-04-10T10:43:34.496Z,17.00
2023-04-10T10:46:04.856Z,15.75
2023-04-10T10:48:33.090Z,9.67
2023-04-10T10:51:02.894Z,14.67
2023-04-10T10:53:44.784Z,15.50
2023-04-10T10:56:19.044Z,14.33
2023-04-10T10:58:51.583Z,10.00
2023-04-10T11:01:21.879Z,12.75
2023-04-10T11:03:50.573Z,14.50
2023-04-10T11:06:20.068Z,14.00
2023-04-10T11:08:49.782Z,10.00
2023-04-10T11:11:21.918Z,15.00
2023-04-10T11:13:50.055Z,17.33
2023-04-10T11:16:19.307Z,15.67
2023-04-10T11:18:55.826Z,22.00
2023-04-10T11:21:31.763Z,21.75
2023-04-10T11:24:00.649Z,18.00
2023-04-10T11:26:37.583Z,16.00
2023-04-10T11:29:07.537Z,15.50
2023-04-10T11:31:35.948Z,12.33
2023-04-10T11:34:08.241Z,16.00
2023-04-10T11:36:42.159Z,18.00
2023-04-10T11:39:19.888Z,17.75
2023-04-10T11:41:50.080Z,14.75
2023-04-10T11:44:32.787Z,14.00
2023-04-10T11:47:01.578Z,15.50
2023-04-10T11:49:34.876Z,11.67
2023-04-10T11:52:03.632Z,15.67
2023-04-10T11:54:32.650Z,15.25
2023-04-10T11:57:09.695Z,11.50
2023-04-10T11:59:38.077Z,13.33
2023-04-10T12:02:11.793Z,14.33
2023-04-10T12:04:40.771Z,10.00
2023-04-10T12:07:10.070Z,13.00
2023-04-10T12:09:38.281Z,14.67
2023-04-10T12:12:07.843Z,14.33
2023-04-10T12:14:41.003Z,15.75
2023-04-10T12:17:11.443Z,14.00
2023-04-10T12:19:40.150Z,13.33
2023-04-10T12:22:08.875Z,14.50
2023-04-10T12:24:53.482Z,12.00
2023-04-10T12:27:23.534Z,13.75
2023-04-10T12:29:53.308Z,12.67
2023-04-10T12:32:23.232Z,16.25
2023-04-10T12:34:58.765Z,14.75
2023-04-10T12:37:49.564Z,14.75
2023-04-10T12:40:18.422Z,13.67
2023-04-10T12:42:47.230Z,12.00
2023-04-10T12:45:15.864Z,14.00
2023-04-10T12:47:47.239Z,13.33
2023-04-10T12:50:16.959Z,12.33
2023-04-10T12:52:48.263Z,14.00
2023-04-10T12:55:16.555Z,14.00
2023-04-10T12:57:49.044Z,14.67
2023-04-10T13:00:18.905Z,12.33
2023-04-10T13:02:49.061Z,12.00
2023-04-10T13:05:17.782Z,14.50
2023-04-10T13:07:46.077Z,13.67
2023-04-10T13:10:14.248Z,12.33
2023-04-10T13:12:44.397Z,9.00
2023-04-10T13:15:12.513Z,12.00
2023-04-10T13:17:42.034Z,14.00
2023-04-10T13:20:11.354Z,13.25
2023-04-10T13:22:39.739Z,11.25
2023-04-10T13:25:08.378Z,13.00
2023-04-10T13:27:36.610Z,12.00
2023-04-10T13:30:05.230Z,15.00
2023-04-10T13:32:33.467Z,11.00
2023-04-10T13:35:01.606Z,13.25
2023-04-10T13:37:29.847Z,15.75
2023-04-10T13:39:58.056Z,13.00
2023-04-10T13:42:26.298Z,14.50
2023-04-10T13:44:54.575Z,11.75
2023-04-10T13:47:22.688Z,10.25
2023-04-10T13:49:50.965Z,12.00
2023-04-10T13:52:19.228Z,13.50
2023-04-10T13:54:47.430Z,12.00
2023-04-10T13:57:15.510Z,12.00
2023-04-10T13:59:43.741Z,13.00
2023-04-10T14:02:12.112Z,14.00
2023-04-10T14:04:41.273Z,12.00
2023-04-10T14:07:10.104Z,14.25
2023-04-10T14:09:38.832Z,11.25
2023-04-10T14:12:06.957Z,12.25
2023-04-10T14:14:35.329Z,13.33
2023-04-10T14:17:03.547Z,11.00
2023-04-10T14:19:32.161Z,11.25
2023-04-10T14:22:00.430Z,17.00
2023-04-10T14:24:28.554Z,16.00
2023-04-10T14:27:00.861Z,16.00
2023-04-10T14:29:37.341Z,15.00
2023-04-10T14:32:07.572Z,19.00
2023-04-10T14:34:35.930Z,15.75
2023-04-10T14:37:04.254Z,15.00
2023-04-10T14:39:33.986Z,14.75
2023-04-10T14:42:02.779Z,14.00
2023-04-10T14:44:31.118Z,17.00
2023-04-10T14:46:59.454Z,17.50
2023-04-10T14:49:27.611Z,16.00
2023-04-10T14:51:55.877Z,10.33
2023-04-10T14:54:24.333Z,9.50
2023-04-10T14:56:52.494Z,15.00
2023-04-10T14:59:20.844Z,13.00
2023-04-10T15:01:49.234Z,12.67
2023-04-10T15:04:17.634Z,13.50
2023-04-10T15:06:46.090Z,17.00
2023-04-10T15:09:14.457Z,14.00
2023-04-10T15:11:42.668Z,15.75
2023-04-10T15:14:12.323Z,12.75
2023-04-10T15:16:40.811Z,12.67
2023-04-10T15:19:09.123Z,14.75
2023-04-10T15:21:37.393Z,13.25
2023-04-10T15:24:05.838Z,14.75
2023-04-10T15:26:34.554Z,11.25
2023-04-10T15:29:03.195Z,10.50
2023-04-10T15:31:31.288Z,10.50
2023-04-10T15:33:59.456Z,12.50
2023-04-10T15:36:28.367Z,13.25
2023-04-10T15:38:56.697Z,12.33
2023-04-10T15:41:24.900Z,13.00
2023-04-10T15:43:53.616Z,13.75
2023-04-10T15:46:21.849Z,13.75
2023-04-10T15:48:50.086Z,15.33
2023-04-10T15:51:18.155Z,13.50
2023-04-10T15:53:46.281Z,16.33
2023-04-10T15:56:16.223Z,10.75
2023-04-10T15:58:44.336Z,11.75
2023-04-10T16:01:12.522Z,10.25
2023-04-10T16:03:40.980Z,12.00
2023-04-10T16:06:09.367Z,13.50
2023-04-10T16:08:37.597Z,12.25
2023-04-10T16:11:06.130Z,10.33
2023-04-10T16:13:34.314Z,12.75
2023-04-10T16:16:02.857Z,12.25
2023-04-10T16:18:31.021Z,14.00
2023-04-10T16:20:59.217Z,12.00
2023-04-10T16:23:27.382Z,6.67
2023-04-10T16:25:55.574Z,9.00
2023-04-10T16:28:23.787Z,10.00
2023-04-10T16:30:52.100Z,19.00
2023-04-10T16:33:20.587Z,25.67
2023-04-10T16:35:48.772Z,19.25
2023-04-10T16:38:16.990Z,20.00
2023-04-10T16:40:45.211Z,19.33
2023-04-10T16:43:13.471Z,18.00
2023-04-10T16:45:42.740Z,16.50
2023-04-10T16:48:11.402Z,10.50
2023-04-10T16:50:40.159Z,13.50
2023-04-10T16:53:08.381Z,14.00
2023-04-10T16:55:36.620Z,14.00
2023-04-10T16:58:04.730Z,14.67
2023-04-10T17:00:33.004Z,16.67
2023-04-10T17:03:02.053Z,15.50
2023-04-10T17:05:35.875Z,13.67
2023-04-10T17:08:05.404Z,13.00
2023-04-10T17:10:33.533Z,10.00
2023-04-10T17:13:01.668Z,13.00
2023-04-10T17:15:29.837Z,15.00
2023-04-10T17:17:57.971Z,10.50
2023-04-10T17:20:26.295Z,7.75
2023-04-10T17:22:54.421Z,10.50
2023-04-10T17:25:22.570Z,10.50
2023-04-10T17:27:50.824Z,9.00
2023-04-10T17:30:19.226Z,10.75
2023-04-10T17:32:49.456Z,10.25
2023-04-10T17:35:17.764Z,9.00
2023-04-10T17:37:45.900Z,7.50
2023-04-10T17:40:14.075Z,10.75
2023-04-10T17:42:42.324Z,9.33
2023-04-10T17:45:11.055Z,10.33
2023-04-10T17:47:40.271Z,10.25
2023-04-10T17:50:09.032Z,12.67
2023-04-10T17:52:37.448Z,9.50
2023-04-10T17:55:06.321Z,8.00
2023-04-10T17:57:34.559Z,11.50
2023-04-10T18:00:07.819Z,9.00
2023-04-10T18:02:36.060Z,9.33
2023-04-10T18:05:04.439Z,10.00
2023-04-10T18:07:32.650Z,12.00
2023-04-10T18:10:00.832Z,9.33
2023-04-10T18:12:29.018Z,8.25
2023-04-10T18:14:57.153Z,9.50
2023-04-10T18:17:25.373Z,8.00
2023-04-10T18:19:55.843Z,9.00
2023-04-10T18:22:24.159Z,13.00
2023-04-10T18:24:52.427Z,10.00
2023-04-10T18:27:20.733Z,10.25
2023-04-10T18:29:48.927Z,8.75
2023-04-10T18:32:17.008Z,8.75
2023-04-10T18:34:45.217Z,9.67
2023-04-10T18:37:13.413Z,8.25
2023-04-10T18:39:41.693Z,8.00
2023-04-10T18:42:12.636Z,8.50
2023-04-10T18:44:40.838Z,9.00
2023-04-10T18:47:11.147Z,9.00
2023-04-10T18:49:39.418Z,8.00
2023-04-10T18:52:07.714Z,9.50
2023-04-10T18:54:36.253Z,8.75
2023-04-10T18:57:04.525Z,7.00
2023-04-10T18:59:32.740Z,9.00
2023-04-10T19:02:01.023Z,8.50
2023-04-10T19:04:29.363Z,7.25
2023-04-10T19:06:57.541Z,8.00
2023-04-10T19:09:25.856Z,8.50
2023-04-10T19:11:54.073Z,8.75
2023-04-10T19:14:22.276Z,9.00
2023-04-10T19:16:50.529Z,6.33
2023-04-10T19:19:18.822Z,8.00
2023-04-10T19:21:47.011Z,8.33
2023-04-10T19:24:15.279Z,7.50
2023-04-10T19:26:43.516Z,7.00
2023-04-10T19:29:13.664Z,7.33
2023-04-10T19:31:42.142Z,7.75
2023-04-10T19:34:11.537Z,8.67
2023-04-10T19:36:39.776Z,5.75
2023-04-10T19:39:08.828Z,8.00
2023-04-10T19:41:42.055Z,9.25
2023-04-10T19:44:10.413Z,6.00
2023-04-10T19:46:38.773Z,9.33
2023-04-10T19:49:07.063Z,8.33
2023-04-10T19:51:35.471Z,8.67
2023-04-10T19:54:03.726Z,9.25
2023-04-10T19:56:31.926Z,8.67
2023-04-10T19:59:00.249Z,7.25
2023-04-10T20:01:28.740Z,8.25
2023-04-10T20:03:57.189Z,8.00
2023-04-10T20:06:25.821Z,8.50
2023-04-10T20:08:54.247Z,8.33
2023-04-10T20:11:22.800Z,11.00
2023-04-10T20:13:51.055Z,9.33
2023-04-10T20:16:19.322Z,9.00
2023-04-10T20:18:47.517Z,9.50
2023-04-10T20:21:15.608Z,8.75
2023-04-10T20:23:43.740Z,8.33
2023-04-10T20:26:12.633Z,10.00
2023-04-10T20:28:40.954Z,8.75
2023-04-10T20:31:11.108Z,10.50
2023-04-10T20:33:39.286Z,8.25
2023-04-10T20:36:07.963Z,8.00
2023-04-10T20:38:36.311Z,10.00
2023-04-10T20:41:04.689Z,8.33
2023-04-10T20:43:33.199Z,8.25
2023-04-10T20:46:05.488Z,10.50
2023-04-10T20:48:33.925Z,8.50
2023-04-10T20:51:02.168Z,7.50
2023-04-10T20:53:30.747Z,10.50
2023-04-10T20:55:58.957Z,7.25
2023-04-10T20:58:27.262Z,8.33
2023-04-10T21:00:56.728Z,7.67
2023-04-10T21:03:25.209Z,8.33
2023-04-10T21:05:54.029Z,5.50
2023-04-10T21:08:22.333Z,6.67
2023-04-10T21:10:51.437Z,7.00
2023-04-10T21:13:19.600Z,9.00
2023-04-10T21:15:49.518Z,6.33
2023-04-10T21:18:18.058Z,6.00
2023-04-10T21:20:46.304Z,5.00
2023-04-10T21:23:14.516Z,7.75
2023-04-10T21:25:49.960Z,3.25
2023-04-10T21:28:18.089Z,7.75
2023-04-10T21:30:46.296Z,7.50
2023-04-10T21:33:15.019Z,7.00
2023-04-10T21:35:44.447Z,6.50
2023-04-10T21:38:13.120Z,8.67
2023-04-10T21:40:41.345Z,6.67
2023-04-10T21:43:09.516Z,4.50
2023-04-10T21:45:38.811Z,6.75
2023-04-10T21:48:07.142Z,8.67
2023-04-10T21:50:35.336Z,6.00
2023-04-10T21:53:03.513Z,9.00
2023-04-10T21:55:31.791Z,6.50
2023-04-10T21:57:59.903Z,8.00
2023-04-10T22:00:29.007Z,6.25
2023-04-10T22:02:57.339Z,7.00
2023-04-10T22:05:25.805Z,8.00
2023-04-10T22:07:54.013Z,8.50
2023-04-10T22:10:22.219Z,8.33
2023-04-10T22:12:50.487Z,7.50
2023-04-10T22:15:18.794Z,8.75
2023-04-10T22:17:46.994Z,6.00
2023-04-10T22:20:15.646Z,6.33
2023-04-10T22:22:43.822Z,7.00
2023-04-10T22:25:12.019Z,7.33
2023-04-10T22:27:40.270Z,6.50
2023-04-10T22:30:10.016Z,6.00
2023-04-10T22:32:38.365Z,6.00
2023-04-10T22:35:07.619Z,6.00
2023-04-10T22:37:36.010Z,7.25
2023-04-10T22:40:05.305Z,5.33
2023-04-10T22:42:33.457Z,7.00
2023-04-10T22:45:01.778Z,4.75
2023-04-10T22:47:30.062Z,7.00
2023-04-10T22:49:58.257Z,8.00
2023-04-10T22:52:26.446Z,7.00
2023-04-10T22:54:54.615Z,5.50
2023-04-10T22:57:22.845Z,7.00
2023-04-10T22:59:51.067Z,5.00
2023-04-10T23:02:19.341Z,7.00
2023-04-10T23:04:47.733Z,4.67
2023-04-10T23:07:16.426Z,5.67
2023-04-10T23:09:44.609Z,5.00
2023-04-10T23:12:12.812Z,5.75
2023-04-10T23:14:41.056Z,6.50
2023-04-10T23:17:09.218Z,6.50
2023-04-10T23:19:37.374Z,6.00
2023-04-10T23:22:05.660Z,6.00
2023-04-10T23:24:33.799Z,6.33
2023-04-10T23:27:02.039Z,8.00
2023-04-10T23:29:30.260Z,4.33
2023-04-10T23:31:58.413Z,7.50
2023-04-10T23:34:27.091Z,4.33
2023-04-10T23:36:55.888Z,5.00
2023-04-10T23:39:24.091Z,6.00
2023-04-10T23:41:52.281Z,7.50
2023-04-10T23:44:20.492Z,5.00
2023-04-10T23:46:49.741Z,6.00
2023-04-10T23:49:18.210Z,6.00
2023-04-10T23:51:46.434Z,6.00
2023-04-10T23:54:14.709Z,6.00
2023-04-10T23:56:43.098Z,5.00
2023-04-10T23:59:11.282Z,5.00
